Time;durP1;ratioP1;P1;durP2;ratioP2;P2;SDS_P1;SDS_P2;PMS_P1;PMS_P2;Temp;Humidity;BMP_temperature;BMP_pressure;BME280_temperature;BME280_humidity;BME280_pressure;Samples;Min_cycle;Max_cycle;Signal;HPM_P1;HPM_P2
2022/07/22 00:01:02;;;;;;;;;;;;;;;32.54;26.75;101479.94;4411514;32;20367;-67
2022/07/22 00:03:28;;;;;;;;;;;;;;;32.76;26.53;101467.59;4411105;32;19958;-67
2022/07/22 00:05:54;;;;;;;;;;;;;;;32.55;26.83;101464.03;4414290;32;20301;-67
2022/07/22 00:08:19;;;;;;;;;;;;;;;32.55;26.83;101458.97;4414248;32;19993;-67
2022/07/22 00:10:45;;;;;;;;;;;;;;;32.23;27.18;101457.81;4413191;32;19989;-67
2022/07/22 00:13:11;;;;;;;;;;;;;;;32.67;26.74;101452.81;4412674;32;19965;-67
2022/07/22 00:15:36;;;;;;;;;;;;;;;32.86;26.54;101459.12;4414679;32;19972;-67
2022/07/22 00:18:01;;;;;;;;;;;;;;;32.43;26.79;101443.19;4412236;32;19972;-67
2022/07/22 00:20:27;;;;;;;;;;;;;;;32.84;26.38;101448.00;4412703;32;19980;-67
2022/07/22 00:22:53;;;;;;;;;;;;;;;32.60;26.69;101448.50;4415707;32;19953;-67
2022/07/22 00:25:18;;;;;;;;;;;;;;;32.50;26.93;101447.50;4411497;32;19983;-67
2022/07/22 00:27:44;;;;;;;;;;;;;;;32.77;26.50;101447.97;4413322;32;20508;-67
2022/07/22 00:30:10;;;;;;;;;;;;;;;32.59;26.81;101447.72;4413465;32;20084;-68
2022/07/22 00:32:35;;;;;;;;;;;;;;;32.68;26.72;101453.00;4412864;32;20021;-68
2022/07/22 00:35:01;;;;;;;;;;;;;;;32.63;26.74;101448.13;4411894;32;20019;-68
2022/07/22 00:37:26;;;;;;;;;;;;;;;32.63;26.77;101455.31;4414182;32;19987;-68
2022/07/22 00:39:52;;;;;;;;;;;;;;;32.65;26.61;101457.06;4412473;32;19971;-68
2022/07/22 00:42:17;;;;;;;;;;;;;;;32.12;27.51;101456.00;4414408;32;20005;-67
2022/07/22 00:44:43;;;;;;;;;;;;;;;32.28;27.18;101454.72;4413584;32;19968;-67
2022/07/22 00:47:09;;;;;;;;;;;;;;;32.46;27.17;101453.69;4412722;32;19985;-67
2022/07/22 00:49:35;;;;;;;;;;;;;;;32.56;27.04;101451.81;4413648;32;20005;-67
2022/07/22 00:52:00;;;;;;;;;;;;;;;31.92;27.78;101453.94;4412914;32;19960;-67
2022/07/22 00:54:26;;;;;;;;;;;;;;;32.11;27.64;101457.34;4414205;32;20387;-67
2022/07/22 00:56:51;;;;;;;;;;;;;;;32.12;27.70;101450.16;4412684;32;20052;-67
2022/07/22 00:59:17;;;;;;;;;;;;;;;32.25;27.52;101452.97;4412566;32;20304;-67
2022/07/22 01:01:42;;;;;;;;;;;;;;;32.34;27.49;101440.78;4412973;32;19984;-67
2022/07/22 01:04:08;;;;;;;;;;;;;;;32.47;27.30;101439.91;4414083;32;20303;-67
2022/07/22 01:06:34;;;;;;;;;;;;;;;32.56;27.23;101431.41;4424322;32;19996;-67
2022/07/22 01:09:00;;;;;;;;;;;;;;;32.54;27.17;101433.31;4425540;32;19993;-67
2022/07/22 01:11:26;;;;;;;;;;;;;;;32.59;27.22;101432.38;4416349;32;19997;-67
2022/07/22 01:13:52;;;;;;;;;;;;;;;32.58;27.20;101434.50;4413398;32;20376;-67
2022/07/22 01:16:17;;;;;;;;;;;;;;;32.77;26.91;101436.31;4414530;32;20654;-67
2022/07/22 01:18:44;;;;;;;;;;;;;;;32.44;27.39;101426.47;4412418;32;19950;-67
2022/07/22 01:21:10;;;;;;;;;;;;;;;32.55;27.18;101437.81;4415379;32;20008;-67
2022/07/22 01:23:36;;;;;;;;;;;;;;;32.65;27.11;101427.91;4415616;32;20017;-67
2022/07/22 01:26:03;;;;;;;;;;;;;;;32.49;27.16;101432.12;4415420;32;19949;-67
2022/07/22 01:28:28;;;;;;;;;;;;;;;32.65;27.10;101427.16;4413429;32;20318;-67
2022/07/22 01:30:54;;;;;;;;;;;;;;;32.51;27.31;101423.59;4414284;32;19994;-67
2022/07/22 01:33:20;;;;;;;;;;;;;;;32.36;27.43;101420.63;4416964;32;19958;-67
2022/07/22 01:35:46;;;;;;;;;;;;;;;32.18;27.85;101412.16;4415825;32;19962;-67
2022/07/22 01:38:12;;;;;;;;;;;;;;;32.26;27.62;101410.84;4413707;32;19997;-67
2022/07/22 01:40:38;;;;;;;;;;;;;;;32.30;27.74;101428.72;4413921;32;19997;-67
2022/07/22 01:43:04;;;;;;;;;;;;;;;32.39;27.67;101416.56;4412990;32;19949;-67
2022/07/22 01:45:29;;;;;;;;;;;;;;;32.40;27.65;101420.25;4414157;32;20100;-67
2022/07/22 01:47:55;;;;;;;;;;;;;;;32.24;27.81;101424.44;4413038;32;19949;-67
2022/07/22 01:50:20;;;;;;;;;;;;;;;31.92;28.04;101419.00;4417678;32;19988;-67
2022/07/22 01:52:46;;;;;;;;;;;;;;;31.95;28.22;101420.75;4418472;32;20346;-67
2022/07/22 01:55:12;;;;;;;;;;;;;;;32.37;27.68;101416.34;4417765;32;19976;-67
2022/07/22 01:57:38;;;;;;;;;;;;;;;32.14;27.71;101414.62;4414276;32;20395;-67
2022/07/22 02:00:05;;;;;;;;;;;;;;;32.08;28.08;101417.72;4418894;32;19972;-67
2022/07/22 02:02:31;;;;;;;;;;;;;;;32.26;27.83;101412.97;4419346;32;20009;-67
2022/07/22 02:04:56;;;;;;;;;;;;;;;32.33;27.72;101413.00;4414954;32;19965;-67
2022/07/22 02:07:21;;;;;;;;;;;;;;;32.35;27.72;101410.31;4418555;32;19954;-67
2022/07/22 02:09:47;;;;;;;;;;;;;;;32.38;27.76;101415.00;4416228;32;20196;-67
2022/07/22 02:12:12;;;;;;;;;;;;;;;32.22;27.74;101400.91;4417622;32;20319;-67
2022/07/22 02:14:38;;;;;;;;;;;;;;;32.29;27.81;101405.97;4417332;32;19998;-67
2022/07/22 02:17:03;;;;;;;;;;;;;;;32.37;27.67;101409.75;4421886;32;20382;-67
2022/07/22 02:19:29;;;;;;;;;;;;;;;32.28;27.82;101416.84;4416403;32;20481;-67
2022/07/22 02:21:54;;;;;;;;;;;;;;;32.21;27.95;101423.41;4415199;32;19981;-67
2022/07/22 02:24:20;;;;;;;;;;;;;;;32.44;27.68;101415.63;4416233;32;20054;-67
2022/07/22 02:26:46;;;;;;;;;;;;;;;32.33;27.79;101413.00;4415052;32;21084;-67
2022/07/22 02:29:11;;;;;;;;;;;;;;;32.26;27.91;101405.00;4417127;32;19991;-67
2022/07/22 02:31:36;;;;;;;;;;;;;;;32.18;28.06;101397.59;4418936;32;19989;-67
2022/07/22 02:34:02;;;;;;;;;;;;;;;32.08;28.11;101403.16;4419407;32;20295;-68
2022/07/22 02:36:28;;;;;;;;;;;;;;;32.03;28.22;101406.25;4417172;32;20375;-68
2022/07/22 02:38:53;;;;;;;;;;;;;;;31.83;28.41;101399.13;4413744;32;20015;-68
2022/07/22 02:41:19;;;;;;;;;;;;;;;32.11;28.17;101399.09;4414825;32;20058;-67
2022/07/22 02:43:44;;;;;;;;;;;;;;;32.13;28.13;101393.50;4415811;32;19996;-67
2022/07/22 02:46:09;;;;;;;;;;;;;;;32.22;28.08;101398.78;4414406;32;19964;-67
2022/07/22 02:48:35;;;;;;;;;;;;;;;31.99;28.33;101400.78;4414653;32;19953;-67
2022/07/22 02:51:01;;;;;;;;;;;;;;;32.11;28.20;101396.19;4417633;32;20347;-67
2022/07/22 02:53:27;;;;;;;;;;;;;;;32.04;28.20;101391.12;4414465;32;19997;-67
2022/07/22 02:55:52;;;;;;;;;;;;;;;32.07;28.12;101389.19;4416374;32;19984;-67
2022/07/22 02:58:21;;;;;;;;;;;;;;;32.19;28.14;101391.19;4413116;32;20363;-67
2022/07/22 03:00:46;;;;;;;;;;;;;;;31.92;28.49;101389.87;4414409;32;19958;-67
2022/07/22 03:03:12;;;;;;;;;;;;;;;32.11;28.22;101395.41;4414524;32;20335;-67
2022/07/22 03:05:41;;;;;;;;;;;;;;;32.16;28.17;101392.34;4414766;32;19985;-67
2022/07/22 03:08:07;;;;;;;;;;;;;;;31.93;28.34;101396.47;4415010;32;20504;-67
2022/07/22 03:10:33;;;;;;;;;;;;;;;32.10;28.30;101380.06;4415341;32;21047;-67
2022/07/22 03:13:01;;;;;;;;;;;;;;;32.22;28.15;101383.44;4416513;32;20337;-67
2022/07/22 03:15:27;;;;;;;;;;;;;;;32.08;28.38;101379.06;4413956;32;19985;-67
2022/07/22 03:17:52;;;;;;;;;;;;;;;32.03;28.37;101374.97;4414969;32;20052;-67
2022/07/22 03:20:20;;;;;;;;;;;;;;;32.22;28.21;101380.53;4415468;32;19982;-67
2022/07/22 03:22:46;;;;;;;;;;;;;;;32.13;28.29;101381.06;4416289;32;19962;-67
2022/07/22 03:25:11;;;;;;;;;;;;;;;32.17;28.19;101373.50;4413410;32;20427;-67
2022/07/22 03:27:38;;;;;;;;;;;;;;;32.02;28.36;101375.53;4412545;32;19989;-67
2022/07/22 03:30:05;;;;;;;;;;;;;;;32.11;28.41;101381.63;4414942;32;20004;-67
2022/07/22 03:32:31;;;;;;;;;;;;;;;31.83;28.55;101377.97;4414603;32;20622;-67
2022/07/22 03:34:56;;;;;;;;;;;;;;;32.08;28.47;101376.16;4413998;32;19957;-67
2022/07/22 03:37:22;;;;;;;;;;;;;;;32.18;28.35;101366.31;4415414;32;19964;-67
2022/07/22 03:39:48;;;;;;;;;;;;;;;32.17;28.26;101375.63;4414144;32;20374;-67
2022/07/22 03:42:13;;;;;;;;;;;;;;;32.08;28.37;101370.34;4415676;32;19964;-67
2022/07/22 03:44:39;;;;;;;;;;;;;;;32.26;28.18;101372.97;4414492;32;19980;-67
2022/07/22 03:47:05;;;;;;;;;;;;;;;32.31;28.12;101374.16;4414665;32;19997;-67
2022/07/22 03:49:31;;;;;;;;;;;;;;;32.33;28.07;101371.41;4413205;32;19945;-67
2022/07/22 03:51:56;;;;;;;;;;;;;;;32.45;27.93;101370.53;4413975;32;20186;-67
2022/07/22 03:54:22;;;;;;;;;;;;;;;32.32;28.22;101364.84;4415645;32;20377;-67
2022/07/22 03:56:47;;;;;;;;;;;;;;;32.16;28.44;101368.25;4412428;32;20327;-67
2022/07/22 03:59:13;;;;;;;;;;;;;;;32.06;28.53;101364.31;4415369;32;20539;-67
2022/07/22 04:01:41;;;;;;;;;;;;;;;32.12;28.49;101359.13;4413321;32;20385;-67
2022/07/22 04:04:09;;;;;;;;;;;;;;;32.03;28.66;101359.66;4413143;32;20381;-67
2022/07/22 04:06:35;;;;;;;;;;;;;;;32.12;28.50;101364.94;4413682;32;20026;-67
2022/07/22 04:09:01;;;;;;;;;;;;;;;32.20;28.38;101357.00;4412645;32;20417;-67
2022/07/22 04:11:26;;;;;;;;;;;;;;;32.17;28.44;101355.25;4414547;32;20390;-67
2022/07/22 04:13:52;;;;;;;;;;;;;;;32.17;28.49;101352.31;4412363;32;20274;-67
2022/07/22 04:16:17;;;;;;;;;;;;;;;32.23;28.52;101358.75;4414853;32;19966;-67
2022/07/22 04:18:43;;;;;;;;;;;;;;;32.15;28.61;101352.13;4414741;32;19989;-67
2022/07/22 04:21:08;;;;;;;;;;;;;;;32.24;28.50;101360.34;4416132;32;20000;-67
2022/07/22 04:23:34;;;;;;;;;;;;;;;32.22;28.66;101351.38;4415054;32;20016;-67
2022/07/22 04:25:59;;;;;;;;;;;;;;;32.34;28.56;101355.56;4413846;32;20387;-67
2022/07/22 04:28:25;;;;;;;;;;;;;;;32.32;28.35;101350.28;4415882;32;20126;-67
2022/07/22 04:30:51;;;;;;;;;;;;;;;32.50;28.33;101345.50;4414464;32;20038;-67
2022/07/22 04:33:16;;;;;;;;;;;;;;;32.32;28.53;101350.28;4412678;32;20374;-67
2022/07/22 04:35:43;;;;;;;;;;;;;;;32.64;28.09;101358.53;4412473;32;19972;-67
2022/07/22 04:38:09;;;;;;;;;;;;;;;32.83;27.82;101355.28;4414200;32;19997;-67
2022/07/22 04:40:35;;;;;;;;;;;;;;;32.50;28.11;101354.22;4413004;32;20401;-67
2022/07/22 04:43:00;;;;;;;;;;;;;;;32.52;28.00;101363.94;4413342;32;20000;-67
2022/07/22 04:45:27;;;;;;;;;;;;;;;32.56;27.98;101351.94;4412418;32;20260;-67
2022/07/22 04:47:52;;;;;;;;;;;;;;;32.38;28.33;101353.81;4413401;32;19972;-67
2022/07/22 04:50:18;;;;;;;;;;;;;;;32.25;28.60;101353.16;4412166;32;19998;-67
2022/07/22 04:52:43;;;;;;;;;;;;;;;32.45;28.50;101358.09;4414224;32;21080;-67
2022/07/22 04:55:09;;;;;;;;;;;;;;;32.40;28.47;101350.31;4412828;32;20430;-67
2022/07/22 04:57:34;;;;;;;;;;;;;;;32.37;28.71;101357.31;4412266;32;20004;-67
2022/07/22 05:00:00;;;;;;;;;;;;;;;32.49;28.51;101350.53;4414570;32;19972;-67
2022/07/22 05:02:26;;;;;;;;;;;;;;;32.42;28.31;101353.41;4415192;32;20017;-67
2022/07/22 05:04:51;;;;;;;;;;;;;;;32.31;28.73;101357.44;4414718;32;20005;-67
2022/07/22 05:07:17;;;;;;;;;;;;;;;32.06;28.93;101352.69;4412816;32;20358;-67
2022/07/22 05:09:42;;;;;;;;;;;;;;;32.28;28.85;101352.00;4411877;32;20001;-67
2022/07/22 05:12:08;;;;;;;;;;;;;;;32.13;29.11;101351.94;4415401;32;19950;-67
2022/07/22 05:14:34;;;;;;;;;;;;;;;32.15;29.25;101347.06;4412208;32;19958;-67
2022/07/22 05:17:00;;;;;;;;;;;;;;;32.27;29.13;101356.25;4414062;32;19958;-67
2022/07/22 05:19:26;;;;;;;;;;;;;;;32.11;29.20;101345.87;4413426;32;19993;-67
2022/07/22 05:21:52;;;;;;;;;;;;;;;32.12;29.45;101356.97;4412888;32;20260;-67
2022/07/22 05:24:17;;;;;;;;;;;;;;;31.84;29.70;101351.19;4413102;32;19973;-67
2022/07/22 05:26:43;;;;;;;;;;;;;;;32.21;29.22;101352.75;4416098;32;20403;-67
2022/07/22 05:29:08;;;;;;;;;;;;;;;32.42;28.92;101350.50;4417757;32;20378;-67
2022/07/22 05:31:34;;;;;;;;;;;;;;;32.29;29.10;101359.37;4417693;32;20332;-67
2022/07/22 05:33:59;;;;;;;;;;;;;;;32.52;28.93;101363.19;4415571;32;20256;-67
2022/07/22 05:36:25;;;;;;;;;;;;;;;32.46;29.04;101360.44;4416411;32;20042;-67
2022/07/22 05:38:51;;;;;;;;;;;;;;;32.56;28.79;101355.63;4413322;32;20213;-67
2022/07/22 05:41:16;;;;;;;;;;;;;;;32.67;28.88;101366.13;4414619;32;20012;-67
2022/07/22 05:43:42;;;;;;;;;;;;;;;32.19;29.11;101349.63;4414977;32;19997;-67
2022/07/22 05:46:07;;;;;;;;;;;;;;;32.26;29.19;101352.56;4415034;32;20001;-67
2022/07/22 05:48:33;;;;;;;;;;;;;;;32.39;29.06;101349.53;4413766;32;20117;-67
2022/07/22 05:50:59;;;;;;;;;;;;;;;32.10;29.22;101345.13;4413921;32;20081;-67
2022/07/22 05:53:24;;;;;;;;;;;;;;;32.29;29.18;101347.72;4416194;32;19972;-67
2022/07/22 05:55:50;;;;;;;;;;;;;;;32.26;29.19;101345.97;4417121;32;19958;-67
2022/07/22 05:58:15;;;;;;;;;;;;;;;32.42;28.93;101348.38;4414930;32;19949;-67
2022/07/22 06:00:42;;;;;;;;;;;;;;;32.41;29.13;101346.84;4416448;32;19953;-67
2022/07/22 06:03:07;;;;;;;;;;;;;;;32.60;28.84;101355.22;4414578;32;20001;-67
2022/07/22 06:05:33;;;;;;;;;;;;;;;32.18;29.10;101348.06;4415827;32;19972;-67
2022/07/22 06:07:58;;;;;;;;;;;;;;;31.98;29.83;101351.84;4415875;32;20531;-67
2022/07/22 06:10:24;;;;;;;;;;;;;;;32.25;29.53;101359.75;4415892;32;19984;-67
2022/07/22 06:12:49;;;;;;;;;;;;;;;32.12;29.59;101356.97;4417498;32;19975;-66
2022/07/22 06:15:15;;;;;;;;;;;;;;;32.08;29.46;101362.37;4415875;32;20565;-67
2022/07/22 06:17:41;;;;;;;;;;;;;;;32.02;29.79;101363.91;4414390;32;21127;-67
2022/07/22 06:20:06;;;;;;;;;;;;;;;32.17;29.44;101361.84;4415339;32;20392;-67
2022/07/22 06:22:32;;;;;;;;;;;;;;;32.14;29.54;101360.09;4414064;32;20019;-67
2022/07/22 06:24:57;;;;;;;;;;;;;;;32.07;29.57;101365.87;4414408;32;19958;-67
2022/07/22 06:27:23;;;;;;;;;;;;;;;32.29;29.39;101351.41;4416279;32;19997;-67
2022/07/22 06:29:49;;;;;;;;;;;;;;;32.16;29.42;101362.44;4414310;32;19997;-67
2022/07/22 06:32:14;;;;;;;;;;;;;;;32.43;29.16;101357.91;4426068;32;20672;-67
2022/07/22 06:34:39;;;;;;;;;;;;;;;32.24;29.92;101360.34;4414179;32;20982;-66
2022/07/22 06:37:05;;;;;;;;;;;;;;;32.16;29.70;101357.41;4414781;32;20014;-66
2022/07/22 06:39:30;;;;;;;;;;;;;;;32.17;30.68;101363.97;4415069;32;19953;-66
2022/07/22 06:41:56;;;;;;;;;;;;;;;32.07;31.21;101355.03;4419331;32;19985;-67
2022/07/22 06:44:21;;;;;;;;;;;;;;;31.74;31.08;101358.87;4413744;32;19957;-67
2022/07/22 06:46:47;;;;;;;;;;;;;;;31.81;31.05;101363.97;4413156;32;20008;-65
2022/07/22 06:49:12;;;;;;;;;;;;;;;31.53;31.12;101363.97;4413977;32;19990;-66
2022/07/22 06:51:38;;;;;;;;;;;;;;;31.66;31.18;101369.69;4414464;32;19993;-67
2022/07/22 06:54:03;;;;;;;;;;;;;;;31.60;31.21;101371.97;4414977;32;19982;-66
2022/07/22 06:56:29;;;;;;;;;;;;;;;31.30;31.63;101365.94;4415159;32;19949;-67
2022/07/22 06:58:54;;;;;;;;;;;;;;;30.87;32.20;101368.59;4415474;32;20509;-67
2022/07/22 07:01:20;;;;;;;;;;;;;;;30.90;32.08;101373.28;4417043;32;19989;-67
2022/07/22 07:03:46;;;;;;;;;;;;;;;30.40;33.03;101371.53;4415104;32;20089;-67
2022/07/22 07:06:11;;;;;;;;;;;;;;;30.94;32.12;101364.19;4414813;32;19950;-67
2022/07/22 07:08:37;;;;;;;;;;;;;;;30.91;31.98;101371.12;4413365;32;20354;-67
2022/07/22 07:11:03;;;;;;;;;;;;;;;30.77;32.81;101367.53;4412495;32;20026;-67
2022/07/22 07:13:29;;;;;;;;;;;;;;;30.79;32.50;101364.84;4416617;32;20004;-67
2022/07/22 07:15:54;;;;;;;;;;;;;;;30.85;32.83;101365.47;4411910;32;19993;-67
2022/07/22 07:18:20;;;;;;;;;;;;;;;31.04;32.48;101357.31;4411376;32;20365;-67
2022/07/22 07:20:45;;;;;;;;;;;;;;;30.78;33.14;101369.09;4414322;32;20012;-67
2022/07/22 07:23:11;;;;;;;;;;;;;;;30.86;33.41;101369.94;4413780;32;20008;-67
2022/07/22 07:25:36;;;;;;;;;;;;;;;30.72;33.51;101362.59;4415666;32;20031;-67
2022/07/22 07:28:02;;;;;;;;;;;;;;;30.73;33.12;101364.16;4414508;32;20041;-67
2022/07/22 07:30:27;;;;;;;;;;;;;;;31.15;32.92;101359.97;4415060;32;20597;-67
2022/07/22 07:32:52;;;;;;;;;;;;;;;31.24;32.55;101370.28;4414084;32;19993;-67
2022/07/22 07:35:18;;;;;;;;;;;;;;;31.50;32.37;101364.34;4415814;32;19985;-67
2022/07/22 07:37:43;;;;;;;;;;;;;;;31.36;31.98;101366.56;4416481;32;19954;-67
2022/07/22 07:40:09;;;;;;;;;;;;;;;31.36;32.46;101365.78;4415053;32;19978;-66
2022/07/22 07:42:35;;;;;;;;;;;;;;;31.44;32.03;101367.38;4413124;32;19968;-66
2022/07/22 07:45:00;;;;;;;;;;;;;;;31.52;32.32;101358.72;4412508;32;19953;-67
2022/07/22 07:47:25;;;;;;;;;;;;;;;31.66;31.95;101366.00;4414653;32;20360;-66
2022/07/22 07:49:51;;;;;;;;;;;;;;;31.50;31.76;101368.00;4412440;32;19989;-66
2022/07/22 07:52:17;;;;;;;;;;;;;;;31.20;32.04;101364.06;4415052;32;20036;-66
2022/07/22 07:54:43;;;;;;;;;;;;;;;31.16;32.34;101367.31;4415137;32;20030;-66
2022/07/22 07:57:10;;;;;;;;;;;;;;;31.24;32.39;101362.37;4412629;32;20031;-66
2022/07/22 07:59:38;;;;;;;;;;;;;;;30.61;32.63;101363.66;4411167;32;19970;-66
2022/07/22 08:02:04;;;;;;;;;;;;;;;30.32;32.78;101361.19;4414212;32;19961;-66
2022/07/22 08:04:30;;;;;;;;;;;;;;;30.40;32.89;101370.78;4412939;32;19969;-66
2022/07/22 08:06:55;;;;;;;;;;;;;;;29.99;33.22;101361.88;4414637;32;20366;-67
2022/07/22 08:09:21;;;;;;;;;;;;;;;29.92;33.54;101362.56;4411893;32;20353;-67
2022/07/22 08:11:46;;;;;;;;;;;;;;;29.62;33.86;101356.31;4411409;32;20008;-67
2022/07/22 08:14:11;;;;;;;;;;;;;;;29.46;34.07;101355.28;4415312;32;19953;-67
2022/07/22 08:16:37;;;;;;;;;;;;;;;29.89;33.31;101357.88;4414605;32;20302;-67
2022/07/22 08:19:03;;;;;;;;;;;;;;;30.15;33.48;101361.50;4413882;32;19976;-67
2022/07/22 08:21:29;;;;;;;;;;;;;;;29.84;33.37;101352.94;4416377;32;19992;-67
2022/07/22 08:23:54;;;;;;;;;;;;;;;29.98;33.08;101355.31;4412417;32;20011;-67
2022/07/22 08:26:20;;;;;;;;;;;;;;;30.20;33.17;101351.94;4413731;32;20035;-67
2022/07/22 08:28:46;;;;;;;;;;;;;;;30.44;33.23;101356.69;4412649;32;20033;-67
2022/07/22 08:31:11;;;;;;;;;;;;;;;30.68;32.99;101353.47;4412719;32;19989;-67
2022/07/22 08:33:37;;;;;;;;;;;;;;;30.88;32.49;101349.03;4423837;32;19953;-67
2022/07/22 08:36:03;;;;;;;;;;;;;;;30.71;32.52;101352.34;4411814;32;19969;-67
2022/07/22 08:38:28;;;;;;;;;;;;;;;30.66;32.40;101348.22;4410857;32;20355;-67
2022/07/22 08:40:54;;;;;;;;;;;;;;;30.75;32.23;101346.97;4411083;32;20294;-67
2022/07/22 08:43:20;;;;;;;;;;;;;;;31.19;32.05;101348.72;4414013;32;20008;-67
2022/07/22 08:45:46;;;;;;;;;;;;;;;30.52;32.76;101349.59;4412104;32;19992;-67
2022/07/22 08:48:12;;;;;;;;;;;;;;;30.80;32.21;101343.91;4425542;32;20001;-67
2022/07/22 08:50:37;;;;;;;;;;;;;;;30.17;33.34;101350.12;4412978;32;19976;-67
2022/07/22 08:53:03;;;;;;;;;;;;;;;30.20;33.18;101348.25;4411695;32;20012;-67
2022/07/22 08:55:28;;;;;;;;;;;;;;;30.35;33.26;101346.31;4414232;32;19950;-66
2022/07/22 08:57:54;;;;;;;;;;;;;;;30.49;32.78;101344.12;4415189;32;19957;-66
2022/07/22 09:00:21;;;;;;;;;;;;;;;30.59;33.33;101348.91;4417193;32;19969;-67
2022/07/22 09:02:46;;;;;;;;;;;;;;;30.30;33.29;101349.34;4418568;32;19949;-67
2022/07/22 09:05:14;;;;;;;;;;;;;;;30.23;33.32;101352.94;4418039;32;20353;-66
2022/07/22 09:07:41;;;;;;;;;;;;;;;30.43;33.31;101347.16;4414126;32;20015;-66
2022/07/22 09:10:07;;;;;;;;;;;;;;;30.50;33.16;101342.81;4417156;32;19961;-66
2022/07/22 09:12:34;;;;;;;;;;;;;;;30.77;33.03;101347.97;4416258;32;20008;-67
2022/07/22 09:15:01;;;;;;;;;;;;;;;30.72;32.97;101350.97;4418102;32;19953;-66
2022/07/22 09:17:28;;;;;;;;;;;;;;;30.81;33.25;101351.28;4417265;32;20023;-65
2022/07/22 09:19:54;;;;;;;;;;;;;;;30.61;33.02;101345.44;4416178;32;20159;-67
2022/07/22 09:22:39;;;;;;;;;;;;;;;30.77;33.13;101341.38;4415576;32;20315;-68
2022/07/22 09:25:17;;;;;;;;;;;;;;;30.70;32.86;101342.81;4414484;32;21463;-67
2022/07/22 09:27:43;;;;;;;;;;;;;;;30.48;33.05;101343.38;4413100;32;20695;-67
2022/07/22 09:30:12;;;;;;;;;;;;;;;30.90;33.59;101332.59;4427914;32;19997;-67
2022/07/22 09:32:40;;;;;;;;;;;;;;;31.12;32.88;101339.94;4416287;32;19985;-67
2022/07/22 09:35:06;;;;;;;;;;;;;;;31.01;32.17;101338.09;4417165;32;19985;-67
2022/07/22 09:37:31;;;;;;;;;;;;;;;30.51;32.51;101344.34;4415931;32;20100;-67
2022/07/22 09:40:11;;;;;;;;;;;;;;;30.06;32.87;101340.88;4413634;32;19975;-67
2022/07/22 09:42:45;;;;;;;;;;;;;;;30.37;32.61;101342.84;4416354;32;19972;-67
2022/07/22 09:45:11;;;;;;;;;;;;;;;30.79;32.33;101347.41;4414905;32;19964;-67
2022/07/22 09:47:40;;;;;;;;;;;;;;;30.96;32.15;101339.03;4415549;32;19993;-67
2022/07/22 09:50:13;;;;;;;;;;;;;;;31.19;32.11;101334.19;4417671;32;20376;-67
2022/07/22 09:52:40;;;;;;;;;;;;;;;31.10;32.32;101334.69;4417648;32;19993;-67
2022/07/22 09:55:06;;;;;;;;;;;;;;;31.09;31.87;101341.09;4414443;32;19981;-67
2022/07/22 09:57:31;;;;;;;;;;;;;;;31.35;31.55;101343.88;4413025;32;20393;-67
2022/07/22 09:59:58;;;;;;;;;;;;;;;31.12;31.49;101337.03;4415834;32;20005;-67
2022/07/22 10:02:24;;;;;;;;;;;;;;;31.04;32.05;101339.88;4416518;32;19984;-67
2022/07/22 10:04:52;;;;;;;;;;;;;;;31.32;32.50;101337.03;4415252;32;19997;-67
2022/07/22 10:07:18;;;;;;;;;;;;;;;31.41;31.69;101338.66;4415839;32;20409;-67
2022/07/22 10:09:45;;;;;;;;;;;;;;;31.32;31.88;101345.75;4413604;32;20002;-66
2022/07/22 10:12:11;;;;;;;;;;;;;;;31.43;31.76;101341.78;4416250;32;19953;-66
2022/07/22 10:14:37;;;;;;;;;;;;;;;31.33;31.94;101353.16;4416575;32;19964;-66
2022/07/22 10:17:03;;;;;;;;;;;;;;;31.24;32.29;101336.19;4413676;32;19953;-66
2022/07/22 10:19:29;;;;;;;;;;;;;;;31.45;32.54;101336.97;4414260;32;19965;-66
2022/07/22 10:21:54;;;;;;;;;;;;;;;31.60;32.56;101342.09;4415560;32;19953;-67
2022/07/22 10:24:23;;;;;;;;;;;;;;;31.74;31.59;101329.78;4415599;32;20001;-66
2022/07/22 10:26:53;;;;;;;;;;;;;;;32.00;31.30;101326.62;4415199;32;19962;-66
2022/07/22 10:29:39;;;;;;;;;;;;;;;32.34;30.86;101324.25;4414925;32;19961;-66
2022/07/22 10:43:03;;;;;;;;;;;;;;;32.78;30.67;101321.25;3952819;32;15722572;-67
2022/07/22 10:45:46;;;;;;;;;;;;;;;32.45;31.45;101323.12;4432989;32;20069;-67
2022/07/22 10:48:12;;;;;;;;;;;;;;;32.21;31.57;101315.66;4434453;32;20003;-67
2022/07/22 10:50:39;;;;;;;;;;;;;;;31.93;32.11;101309.13;4435039;32;20066;-67
2022/07/22 10:53:05;;;;;;;;;;;;;;;31.95;31.98;101309.31;4435470;32;19968;-67
2022/07/22 10:55:31;;;;;;;;;;;;;;;31.86;32.89;101310.66;4432922;32;19993;-67
2022/07/22 10:57:57;;;;;;;;;;;;;;;31.70;32.41;101291.53;4433080;32;20008;-67
2022/07/22 11:00:23;;;;;;;;;;;;;;;31.49;32.29;101299.53;4434803;32;20003;-67
2022/07/22 11:02:49;;;;;;;;;;;;;;;31.74;32.49;101300.66;4437189;32;19967;-67
2022/07/22 11:05:24;;;;;;;;;;;;;;;31.94;33.12;101311.44;4434827;32;19957;-67
2022/07/22 11:07:49;;;;;;;;;;;;;;;31.99;33.42;101309.72;4433694;32;19957;-67
2022/07/22 11:10:17;;;;;;;;;;;;;;;31.58;33.23;101299.03;4432353;32;20023;-67
2022/07/22 11:12:43;;;;;;;;;;;;;;;31.73;33.26;101296.19;4434428;32;20304;-67
2022/07/22 11:15:09;;;;;;;;;;;;;;;31.50;33.25;101301.09;4434299;32;20338;-67
2022/07/22 11:17:35;;;;;;;;;;;;;;;31.28;33.89;101298.03;4435297;32;19996;-67
2022/07/22 11:20:02;;;;;;;;;;;;;;;31.31;34.54;101297.69;4432150;32;19988;-67
2022/07/22 11:22:28;;;;;;;;;;;;;;;31.37;34.05;101295.38;4434491;32;19984;-68
2022/07/22 11:24:53;;;;;;;;;;;;;;;31.26;33.86;101297.81;4432170;32;20404;-68
2022/07/22 11:27:21;;;;;;;;;;;;;;;31.33;33.98;101303.72;4432305;32;20005;-66
2022/07/22 11:29:50;;;;;;;;;;;;;;;30.76;34.62;101291.19;4431380;32;20219;-66
2022/07/22 11:32:16;;;;;;;;;;;;;;;30.48;34.60;101296.88;4433389;32;20374;-66
2022/07/22 11:34:45;;;;;;;;;;;;;;;30.57;34.71;101286.91;4432951;32;19999;-66
2022/07/22 11:37:14;;;;;;;;;;;;;;;30.39;34.77;101290.78;4431341;32;19965;-66
2022/07/22 11:39:40;;;;;;;;;;;;;;;30.43;35.45;101297.03;4433318;32;19949;-67
2022/07/22 11:42:06;;;;;;;;;;;;;;;30.87;34.48;101281.41;4433894;32;19964;-67
2022/07/22 11:44:33;;;;;;;;;;;;;;;30.76;34.87;101287.50;4434523;32;20366;-67
2022/07/22 11:46:59;;;;;;;;;;;;;;;30.97;33.86;101284.56;4433109;32;20074;-67
2022/07/22 11:49:27;;;;;;;;;;;;;;;30.64;34.45;101286.97;4431681;32;19984;-67
2022/07/22 11:51:53;;;;;;;;;;;;;;;30.72;34.59;101284.16;4419623;32;20010;-67
2022/07/22 11:54:18;;;;;;;;;;;;;;;31.00;34.76;101286.34;4423440;32;19954;-67
2022/07/22 11:56:44;;;;;;;;;;;;;;;31.03;34.25;101283.09;4421189;32;19957;-67
2022/07/22 11:59:12;;;;;;;;;;;;;;;31.37;33.73;101282.97;4418262;32;20404;-68
2022/07/22 12:01:38;;;;;;;;;;;;;;;31.48;33.44;101276.84;4422488;32;20378;-67
2022/07/22 12:04:05;;;;;;;;;;;;;;;31.45;33.33;101278.00;4422879;32;19950;-67
2022/07/22 12:06:34;;;;;;;;;;;;;;;31.87;33.33;101271.44;4419050;32;20262;-68
2022/07/22 12:09:03;;;;;;;;;;;;;;;31.94;33.28;101273.59;4419420;32;19964;-68
2022/07/22 12:11:29;;;;;;;;;;;;;;;31.81;33.57;101272.94;4424051;32;20341;-68
2022/07/22 12:13:54;;;;;;;;;;;;;;;31.61;33.00;101271.69;4420904;32;20990;-68
2022/07/22 12:16:24;;;;;;;;;;;;;;;31.62;32.71;101275.34;4421253;32;20022;-67
2022/07/22 12:18:51;;;;;;;;;;;;;;;31.65;33.04;101271.28;4420218;32;19974;-67
2022/07/22 12:21:16;;;;;;;;;;;;;;;31.72;32.94;101277.16;4420643;32;20421;-67
2022/07/22 12:23:48;;;;;;;;;;;;;;;31.66;32.65;101278.69;4421566;32;19989;-67
2022/07/22 12:26:14;;;;;;;;;;;;;;;30.91;32.56;101273.09;4423264;32;20043;-67
2022/07/22 12:28:40;;;;;;;;;;;;;;;31.18;32.63;101270.78;4418836;32;19957;-67
2022/07/22 12:31:05;;;;;;;;;;;;;;;31.34;33.27;101263.75;4420461;32;19997;-67
2022/07/22 12:33:31;;;;;;;;;;;;;;;31.07;33.57;101274.78;4424525;32;20414;-67
2022/07/22 12:35:59;;;;;;;;;;;;;;;31.95;32.67;101272.25;4409707;32;19969;-67
2022/07/22 12:38:24;;;;;;;;;;;;;;;32.01;32.46;101269.97;4422423;32;20108;-69
2022/07/22 12:40:50;;;;;;;;;;;;;;;31.95;31.92;101271.47;4420082;32;19986;-69